createdAt,value
2019-02-20T00:01:26.577Z,16.52
2019-02-20T00:03:53.544Z,16.55
2019-02-20T00:06:20.566Z,16.54
2019-02-20T00:08:47.532Z,16.49
2019-02-20T00:11:14.429Z,16.44
2019-02-20T00:13:41.302Z,16.42
2019-02-20T00:16:08.516Z,16.41
2019-02-20T00:18:35.465Z,16.43
2019-02-20T00:21:02.357Z,16.46
2019-02-20T00:23:30.490Z,16.47
2019-02-20T00:25:57.456Z,16.44
2019-02-20T00:28:24.415Z,16.43
2019-02-20T00:30:51.385Z,16.45
2019-02-20T00:33:18.584Z,16.45
2019-02-20T00:35:45.830Z,16.43
2019-02-20T00:38:13.188Z,16.43
2019-02-20T00:40:40.091Z,16.45
2019-02-20T00:43:07.105Z,16.43
2019-02-20T00:45:34.022Z,16.15
2019-02-20T00:48:01.285Z,16.40
2019-02-20T00:50:28.269Z,16.36
2019-02-20T00:52:55.568Z,16.33
2019-02-20T00:55:22.514Z,16.27
2019-02-20T00:57:49.666Z,16.28
2019-02-20T01:00:16.914Z,16.29
2019-02-20T01:02:43.796Z,16.29
2019-02-20T01:05:10.736Z,16.30
2019-02-20T01:07:37.704Z,16.31
2019-02-20T01:10:05.012Z,16.29
2019-02-20T01:12:31.916Z,16.23
2019-02-20T01:14:59.214Z,16.22
2019-02-20T01:17:26.177Z,16.23
2019-02-20T01:19:53.470Z,16.21
2019-02-20T01:22:20.654Z,16.19
2019-02-20T01:24:47.904Z,16.18
2019-02-20T01:27:15.077Z,16.15
2019-02-20T01:29:42.036Z,16.15
2019-02-20T01:32:08.925Z,16.15
2019-02-20T01:34:36.222Z,16.12
2019-02-20T01:37:03.450Z,16.09
2019-02-20T01:39:30.359Z,16.07
2019-02-20T01:41:57.317Z,16.06
2019-02-20T01:44:25.538Z,15.99
2019-02-20T01:46:52.433Z,15.96
2019-02-20T01:49:19.621Z,15.97
2019-02-20T01:51:46.533Z,15.98
2019-02-20T01:54:13.449Z,15.98
2019-02-20T01:56:40.794Z,15.96
2019-02-20T01:59:07.750Z,15.90
2019-02-20T02:01:35.789Z,15.85
2019-02-20T02:04:02.660Z,15.82
2019-02-20T02:06:30.717Z,15.82
2019-02-20T02:08:59.585Z,15.81
2019-02-20T02:11:26.266Z,15.82
2019-02-20T02:13:53.478Z,15.84
2019-02-20T02:16:20.734Z,15.86
2019-02-20T02:18:48.090Z,15.86
2019-02-20T02:21:15.344Z,15.84
2019-02-20T02:23:42.225Z,15.82
2019-02-20T02:26:11.125Z,15.84
2019-02-20T02:28:38.199Z,15.83
2019-02-20T02:31:05.439Z,15.81
2019-02-20T02:33:32.398Z,15.78
2019-02-20T02:35:59.389Z,15.76
2019-02-20T02:38:26.361Z,15.72
2019-02-20T02:40:53.668Z,15.69
2019-02-20T02:43:20.561Z,15.62
2019-02-20T02:45:47.780Z,15.63
2019-02-20T02:48:15.033Z,15.64
2019-02-20T02:50:42.006Z,15.66
2019-02-20T02:53:08.934Z,15.67
2019-02-20T02:55:35.957Z,15.62
2019-02-20T02:58:02.857Z,15.62
2019-02-20T03:00:30.165Z,15.57
2019-02-20T03:02:57.242Z,15.58
2019-02-20T03:05:24.175Z,15.61
2019-02-20T03:07:51.150Z,15.64
2019-02-20T03:10:18.050Z,15.66
2019-02-20T03:12:45.332Z,15.67
2019-02-20T03:15:12.565Z,15.66
2019-02-20T03:17:39.475Z,15.64
2019-02-20T03:20:06.851Z,15.59
2019-02-20T03:22:33.834Z,15.56
2019-02-20T03:25:00.804Z,15.56
2019-02-20T03:27:27.789Z,15.57
2019-02-20T03:29:55.657Z,15.59
2019-02-20T03:32:22.547Z,15.59
2019-02-20T03:34:49.406Z,15.60
2019-02-20T03:37:16.764Z,15.60
2019-02-20T03:39:43.770Z,15.57
2019-02-20T03:42:10.710Z,15.56
2019-02-20T03:44:37.702Z,15.54
2019-02-20T03:47:04.990Z,15.54
2019-02-20T03:49:32.155Z,15.55
2019-02-20T03:51:59.137Z,15.56
2019-02-20T03:54:26.102Z,15.54
2019-02-20T03:56:53.089Z,15.50
2019-02-20T03:59:20.037Z,15.46
2019-02-20T04:01:46.910Z,15.43
2019-02-20T04:04:13.863Z,15.45
2019-02-20T04:06:41.096Z,15.43
2019-02-20T04:09:08.064Z,15.38
2019-02-20T04:11:35.374Z,15.38
2019-02-20T04:14:02.623Z,15.39
2019-02-20T04:16:29.506Z,15.40
2019-02-20T04:18:56.836Z,15.41
2019-02-20T04:21:24.077Z,15.42
2019-02-20T04:24:01.584Z,15.40
2019-02-20T04:26:19.525Z,15.41
2019-02-20T04:28:46.528Z,15.39
2019-02-20T04:31:13.946Z,15.40
2019-02-20T04:33:40.907Z,15.39
2019-02-20T04:36:07.942Z,15.43
2019-02-20T04:38:35.006Z,15.41
2019-02-20T04:41:01.885Z,15.39
2019-02-20T04:43:28.828Z,15.36
2019-02-20T04:45:56.203Z,15.35
2019-02-20T04:48:23.163Z,15.36
2019-02-20T04:50:50.047Z,15.35
2019-02-20T04:53:18.930Z,15.37
2019-02-20T04:55:46.178Z,15.33
2019-02-20T04:58:13.154Z,15.31
2019-02-20T05:00:40.137Z,15.27
2019-02-20T05:03:07.376Z,15.24
2019-02-20T05:05:34.252Z,15.19
2019-02-20T05:08:01.238Z,15.21
2019-02-20T05:10:28.211Z,15.21
2019-02-20T05:12:55.228Z,15.20
2019-02-20T05:15:22.190Z,15.21
2019-02-20T05:17:49.566Z,15.22
2019-02-20T05:20:16.444Z,15.21
2019-02-20T05:22:43.411Z,15.23
2019-02-20T05:25:10.380Z,15.25
2019-02-20T05:27:37.336Z,15.24
2019-02-20T05:30:04.346Z,15.24
2019-02-20T05:32:32.083Z,15.23
2019-02-20T05:34:59.036Z,15.27
2019-02-20T05:37:25.986Z,15.29
2019-02-20T05:39:52.979Z,15.32
2019-02-20T05:42:20.260Z,15.35
2019-02-20T05:44:47.234Z,15.37
2019-02-20T05:47:14.571Z,15.42
2019-02-20T05:49:41.567Z,15.41
2019-02-20T05:52:08.504Z,15.40
2019-02-20T05:54:35.481Z,15.42
2019-02-20T05:57:02.406Z,15.23
2019-02-20T05:59:29.691Z,15.46
2019-02-20T06:01:56.573Z,15.50
2019-02-20T06:04:23.547Z,15.52
2019-02-20T06:06:50.844Z,15.55
2019-02-20T06:09:18.100Z,15.56
2019-02-20T06:11:45.204Z,15.57
2019-02-20T06:14:14.497Z,15.56
2019-02-20T06:16:41.801Z,15.58
2019-02-20T06:19:08.917Z,15.63
2019-02-20T06:21:35.886Z,15.64
2019-02-20T06:24:02.824Z,15.63
2019-02-20T06:26:30.094Z,15.62
2019-02-20T06:28:57.083Z,15.63
2019-02-20T06:31:24.089Z,15.61
2019-02-20T06:33:51.342Z,15.61
2019-02-20T06:36:18.710Z,15.64
2019-02-20T06:38:45.580Z,15.66
2019-02-20T06:41:12.470Z,15.68
2019-02-20T06:43:39.412Z,15.67
2019-02-20T06:46:06.575Z,15.66
2019-02-20T06:48:33.535Z,15.67
2019-02-20T06:51:00.765Z,15.67
2019-02-20T06:53:28.021Z,15.71
2019-02-20T06:55:54.993Z,15.73
2019-02-20T06:58:21.944Z,15.74
2019-02-20T07:00:49.162Z,15.76
2019-02-20T07:03:16.036Z,15.76
2019-02-20T07:05:42.930Z,15.80
2019-02-20T07:08:10.241Z,15.82
2019-02-20T07:10:37.225Z,15.85
2019-02-20T07:13:04.200Z,15.88
2019-02-20T07:15:31.090Z,15.90
2019-02-20T07:17:57.965Z,15.90
2019-02-20T07:20:24.927Z,15.92
2019-02-20T07:22:52.202Z,15.91
2019-02-20T07:25:19.071Z,15.92
2019-02-20T07:27:46.282Z,15.93
2019-02-20T07:30:13.177Z,15.94
2019-02-20T07:32:40.507Z,15.91
2019-02-20T07:35:07.427Z,15.94
2019-02-20T07:37:34.384Z,15.93
2019-02-20T07:40:01.329Z,15.93
2019-02-20T07:42:29.916Z,15.97
2019-02-20T07:44:56.887Z,16.00
2019-02-20T07:47:24.216Z,16.02
2019-02-20T07:49:51.466Z,16.02
2019-02-20T07:52:18.728Z,16.06
2019-02-20T07:54:45.672Z,16.08
2019-02-20T07:57:12.911Z,16.10
2019-02-20T07:59:39.866Z,16.12
2019-02-20T08:02:07.124Z,16.12
2019-02-20T08:04:34.067Z,16.15
2019-02-20T08:07:01.302Z,16.16
2019-02-20T08:09:28.182Z,16.19
2019-02-20T08:11:55.074Z,16.23
2019-02-20T08:14:21.960Z,16.27
2019-02-20T08:16:52.232Z,16.28
2019-02-20T08:19:17.773Z,16.26
2019-02-20T08:21:48.169Z,16.28
2019-02-20T08:24:18.333Z,16.30
2019-02-20T08:26:45.578Z,16.27
2019-02-20T08:29:12.832Z,16.29
2019-02-20T08:31:39.977Z,16.31
2019-02-20T08:34:06.867Z,16.31
2019-02-20T08:36:34.184Z,16.35
2019-02-20T08:39:01.331Z,16.33
2019-02-20T08:41:29.883Z,16.34
2019-02-20T08:43:56.823Z,16.35
2019-02-20T08:46:24.117Z,16.39
2019-02-20T08:48:51.424Z,16.40
2019-02-20T08:51:18.389Z,16.40
2019-02-20T08:53:45.333Z,16.35
2019-02-20T08:56:12.197Z,16.31
2019-02-20T08:58:39.453Z,16.28
2019-02-20T09:01:06.613Z,16.28
2019-02-20T09:03:33.515Z,16.32
2019-02-20T09:06:00.466Z,16.35
2019-02-20T09:08:27.636Z,16.41
2019-02-20T09:10:54.518Z,16.44
2019-02-20T09:13:21.877Z,16.47
2019-02-20T09:15:49.199Z,16.50
2019-02-20T09:18:16.080Z,16.53
2019-02-20T09:20:43.291Z,16.54
2019-02-20T09:23:10.604Z,16.51
2019-02-20T09:25:41.510Z,16.52
2019-02-20T09:28:06.425Z,16.51
2019-02-20T09:30:33.332Z,16.53
2019-02-20T09:33:00.294Z,16.58
2019-02-20T09:35:27.522Z,16.61
2019-02-20T09:37:58.832Z,16.64
2019-02-20T09:40:24.868Z,16.65
2019-02-20T09:42:51.891Z,16.66
2019-02-20T09:45:18.837Z,16.71
2019-02-20T09:47:46.967Z,16.79
2019-02-20T09:50:13.832Z,16.84
2019-02-20T09:52:41.952Z,16.91
2019-02-20T09:55:09.249Z,16.98
2019-02-20T09:57:36.201Z,17.02
2019-02-20T10:00:03.433Z,17.07
2019-02-20T10:02:32.249Z,17.08
2019-02-20T10:04:59.282Z,17.09
2019-02-20T10:07:26.541Z,17.13
2019-02-20T10:09:54.921Z,17.16
2019-02-20T10:12:23.299Z,17.20
2019-02-20T10:14:50.239Z,17.23
2019-02-20T10:17:17.176Z,17.28
2019-02-20T10:19:45.007Z,17.28
2019-02-20T10:22:12.742Z,17.32
2019-02-20T10:24:39.839Z,17.35
2019-02-20T10:27:06.713Z,17.39
2019-02-20T10:29:33.742Z,17.40
2019-02-20T10:32:01.119Z,17.40
2019-02-20T10:34:28.099Z,17.38
2019-02-20T10:36:55.316Z,17.43
2019-02-20T10:39:22.562Z,17.43
2019-02-20T10:41:49.546Z,17.42
2019-02-20T10:44:16.888Z,17.44
2019-02-20T10:46:43.850Z,17.29
2019-02-20T10:49:10.819Z,17.27
2019-02-20T10:51:38.740Z,17.33
2019-02-20T10:54:05.881Z,17.31
2019-02-20T10:56:32.795Z,17.29
2019-02-20T10:59:00.489Z,17.33
2019-02-20T11:01:27.831Z,17.38
2019-02-20T11:03:54.698Z,17.41
2019-02-20T11:06:21.569Z,17.45
2019-02-20T11:08:50.396Z,17.46
2019-02-20T11:11:17.168Z,17.53
2019-02-20T11:13:44.518Z,17.43
2019-02-20T11:16:11.464Z,17.35
2019-02-20T11:18:38.375Z,17.32
2019-02-20T11:21:05.332Z,17.35
2019-02-20T11:23:32.308Z,17.46
2019-02-20T11:25:59.656Z,17.56
2019-02-20T11:28:27.196Z,17.65
2019-02-20T11:30:56.889Z,17.72
2019-02-20T11:33:24.173Z,17.72
2019-02-20T11:35:51.430Z,17.63
2019-02-20T11:38:18.688Z,17.67
2019-02-20T11:40:45.930Z,17.78
2019-02-20T11:43:12.834Z,17.87
2019-02-20T11:45:40.125Z,17.86
2019-02-20T11:48:07.001Z,17.89
2019-02-20T11:50:33.889Z,17.93
2019-02-20T11:53:01.185Z,17.92
2019-02-20T11:55:28.413Z,17.81
2019-02-20T11:58:00.653Z,17.83
2019-02-20T12:00:24.160Z,17.88
2019-02-20T12:02:51.417Z,17.82
2019-02-20T12:05:18.380Z,17.81
2019-02-20T12:07:45.307Z,17.75
2019-02-20T12:10:12.859Z,17.76
2019-02-20T12:12:39.975Z,17.80
2019-02-20T12:15:07.310Z,17.80
2019-02-20T12:17:34.283Z,17.83
2019-02-20T12:20:01.247Z,17.89
2019-02-20T12:22:29.651Z,17.93
2019-02-20T12:24:56.545Z,17.97
2019-02-20T12:27:23.738Z,17.93
2019-02-20T12:29:51.049Z,17.90
2019-02-20T12:32:17.984Z,17.89
2019-02-20T12:34:46.442Z,17.89
2019-02-20T12:37:13.502Z,17.83
2019-02-20T12:39:40.723Z,17.76
2019-02-20T12:42:08.091Z,17.67
2019-02-20T12:44:35.069Z,17.75
2019-02-20T12:47:02.020Z,17.74
2019-02-20T12:49:28.906Z,17.79
2019-02-20T12:51:55.838Z,17.91
2019-02-20T12:54:23.126Z,18.10
2019-02-20T12:56:50.103Z,18.29
2019-02-20T12:59:17.602Z,18.47
2019-02-20T13:01:44.742Z,18.58
2019-02-20T13:04:11.905Z,18.74
2019-02-20T13:06:38.776Z,18.86
2019-02-20T13:09:06.021Z,18.91
2019-02-20T13:11:33.593Z,18.90
2019-02-20T13:14:00.533Z,18.90
2019-02-20T13:16:27.430Z,18.90
2019-02-20T13:18:54.717Z,18.93
2019-02-20T13:21:22.760Z,18.96
2019-02-20T13:23:50.039Z,18.96
2019-02-20T13:26:17.010Z,18.96
2019-02-20T13:28:43.950Z,19.00
2019-02-20T13:31:11.184Z,19.03
2019-02-20T13:33:38.061Z,19.04
2019-02-20T13:36:05.265Z,19.12
2019-02-20T13:38:32.466Z,19.20
2019-02-20T13:40:59.449Z,19.18
2019-02-20T13:43:26.728Z,19.21
2019-02-20T13:45:53.721Z,19.27
2019-02-20T13:48:20.656Z,19.37
2019-02-20T13:50:48.575Z,19.40
2019-02-20T13:53:15.546Z,19.43
2019-02-20T13:55:42.516Z,19.47
2019-02-20T13:58:11.584Z,19.48
2019-02-20T14:00:38.309Z,19.44
2019-02-20T14:03:06.194Z,19.48
2019-02-20T14:05:33.421Z,19.49
2019-02-20T14:08:00.686Z,19.52
2019-02-20T14:10:28.972Z,19.60
2019-02-20T14:12:55.916Z,19.61
2019-02-20T14:15:22.870Z,19.61
2019-02-20T14:17:49.860Z,19.68
2019-02-20T14:20:16.928Z,19.73
2019-02-20T14:22:43.953Z,19.77
2019-02-20T14:25:11.269Z,19.78
2019-02-20T14:27:38.228Z,19.77
2019-02-20T14:30:05.452Z,19.75
2019-02-20T14:32:33.637Z,19.76
2019-02-20T14:35:01.686Z,19.78
2019-02-20T14:37:30.298Z,19.79
2019-02-20T14:39:57.551Z,19.76
2019-02-20T14:42:24.777Z,19.74
2019-02-20T14:44:51.724Z,19.77
2019-02-20T14:47:19.013Z,19.78
2019-02-20T14:49:46.244Z,19.74
2019-02-20T14:52:13.218Z,19.60
2019-02-20T14:54:40.168Z,19.39
2019-02-20T14:57:07.134Z,19.39
2019-02-20T14:59:34.678Z,19.49
2019-02-20T15:02:01.647Z,19.60
2019-02-20T15:04:28.596Z,19.67
2019-02-20T15:06:55.569Z,19.76
2019-02-20T15:09:22.516Z,19.78
2019-02-20T15:11:49.501Z,19.84
2019-02-20T15:14:16.465Z,19.85
2019-02-20T15:16:43.437Z,19.87
2019-02-20T15:19:10.392Z,19.87
2019-02-20T15:21:37.407Z,19.85
2019-02-20T15:24:04.582Z,19.81
2019-02-20T15:26:31.523Z,19.82
2019-02-20T15:28:58.513Z,19.78
2019-02-20T15:31:33.413Z,19.79
2019-02-20T15:33:54.452Z,19.83
2019-02-20T15:36:22.087Z,19.80
2019-02-20T15:38:49.032Z,19.77
2019-02-20T15:41:16.285Z,19.72
2019-02-20T15:43:43.185Z,19.65
2019-02-20T15:46:10.496Z,19.54
2019-02-20T15:48:37.488Z,19.52
2019-02-20T15:51:04.454Z,19.50
2019-02-20T15:53:31.735Z,19.39
2019-02-20T15:55:59.006Z,19.23
2019-02-20T15:58:27.304Z,19.16
2019-02-20T16:00:54.341Z,19.07
2019-02-20T16:03:21.680Z,18.99
2019-02-20T16:05:48.631Z,18.94
2019-02-20T16:08:15.875Z,18.90
2019-02-20T16:10:42.850Z,18.88
2019-02-20T16:13:09.814Z,18.84
2019-02-20T16:15:37.157Z,18.80
2019-02-20T16:18:04.493Z,18.71
2019-02-20T16:20:31.444Z,18.63
2019-02-20T16:22:58.388Z,18.57
2019-02-20T16:25:25.727Z,18.55
2019-02-20T16:27:52.989Z,18.53
2019-02-20T16:30:20.236Z,18.50
2019-02-20T16:32:47.478Z,18.47
2019-02-20T16:35:14.757Z,18.46
2019-02-20T16:37:41.726Z,18.39
2019-02-20T16:40:09.045Z,18.32
2019-02-20T16:42:36.311Z,18.25
2019-02-20T16:45:03.265Z,18.16
2019-02-20T16:47:31.617Z,18.10
2019-02-20T16:49:58.977Z,18.05
2019-02-20T16:52:26.276Z,18.04
2019-02-20T16:54:55.014Z,18.01
2019-02-20T16:57:22.469Z,17.95
2019-02-20T16:59:49.817Z,17.88
2019-02-20T17:02:17.076Z,17.81
2019-02-20T17:04:44.339Z,17.75
2019-02-20T17:07:11.357Z,17.72
2019-02-20T17:09:38.304Z,17.70
2019-02-20T17:12:05.599Z,17.69
2019-02-20T17:14:32.838Z,17.69
2019-02-20T17:17:00.092Z,17.73
2019-02-20T17:19:27.055Z,17.72
2019-02-20T17:21:54.019Z,17.66
2019-02-20T17:24:20.957Z,17.65
2019-02-20T17:26:48.937Z,17.63
2019-02-20T17:29:16.423Z,17.59
2019-02-20T17:31:43.387Z,17.52
2019-02-20T17:34:10.362Z,17.43
2019-02-20T17:36:37.691Z,17.36
2019-02-20T17:39:07.186Z,17.31
2019-02-20T17:41:35.910Z,17.29
2019-02-20T17:44:02.973Z,17.21
2019-02-20T17:46:31.251Z,17.17
2019-02-20T17:48:58.269Z,17.18
2019-02-20T17:51:25.219Z,17.21
2019-02-20T17:53:52.290Z,17.23
2019-02-20T17:56:19.270Z,17.17
2019-02-20T17:58:46.244Z,17.15
2019-02-20T18:01:13.215Z,17.11
2019-02-20T18:03:40.442Z,17.09
2019-02-20T18:06:07.355Z,17.02
2019-02-20T18:08:34.646Z,16.98
2019-02-20T18:11:01.979Z,16.94
2019-02-20T18:13:29.260Z,16.91
2019-02-20T18:15:56.504Z,16.90
2019-02-20T18:18:23.394Z,16.90
2019-02-20T18:20:50.309Z,16.90
2019-02-20T18:23:17.821Z,16.88
2019-02-20T18:25:45.151Z,16.84
2019-02-20T18:28:12.322Z,16.83
2019-02-20T18:30:39.625Z,16.79
2019-02-20T18:33:06.516Z,16.75
2019-02-20T18:35:33.825Z,16.69
2019-02-20T18:38:00.806Z,16.62
2019-02-20T18:40:27.833Z,16.61
2019-02-20T18:42:54.817Z,16.58
2019-02-20T18:45:22.034Z,16.60
2019-02-20T18:47:49.264Z,16.62
2019-02-20T18:50:16.243Z,16.63
2019-02-20T18:52:43.197Z,16.63
2019-02-20T18:55:11.156Z,16.58
2019-02-20T18:57:38.130Z,16.53
2019-02-20T19:00:06.391Z,16.51
2019-02-20T19:02:34.992Z,16.49
2019-02-20T19:05:02.300Z,16.47
2019-02-20T19:07:30.779Z,16.43
2019-02-20T19:09:57.760Z,16.41
2019-02-20T19:12:24.738Z,16.43
2019-02-20T19:14:51.767Z,16.46
2019-02-20T19:19:59.475Z,16.44
2019-02-20T19:22:26.446Z,16.34
2019-02-20T19:24:54.461Z,16.36
2019-02-20T19:27:21.477Z,16.34
2019-02-20T19:29:48.765Z,16.34
2019-02-20T19:32:16.801Z,16.33
2019-02-20T19:34:43.704Z,16.32
2019-02-20T19:37:11.051Z,16.31
2019-02-20T19:39:38.367Z,16.31
2019-02-20T19:42:05.252Z,16.32
2019-02-20T19:44:32.589Z,16.33
2019-02-20T19:46:59.550Z,16.32
2019-02-20T19:49:26.485Z,16.33
2019-02-20T19:51:53.846Z,16.35
2019-02-20T19:54:20.897Z,16.33
2019-02-20T19:56:47.919Z,16.33
2019-02-20T19:59:15.009Z,16.30
2019-02-20T20:01:44.561Z,16.36
2019-02-20T20:04:10.517Z,16.41
2019-02-20T20:06:37.540Z,16.43
2019-02-20T20:09:04.619Z,16.50
2019-02-20T20:11:44.235Z,16.61
2019-02-20T20:14:03.249Z,16.68
2019-02-20T20:16:30.642Z,16.71
2019-02-20T20:18:57.982Z,16.77
2019-02-20T20:21:25.250Z,16.79
2019-02-20T20:23:52.279Z,16.77
2019-02-20T20:26:19.199Z,16.80
2019-02-20T20:28:46.075Z,16.86
2019-02-20T20:31:12.977Z,16.88
2019-02-20T20:33:39.987Z,16.86
2019-02-20T20:36:07.237Z,16.89
2019-02-20T20:38:34.648Z,16.94
2019-02-20T20:41:01.676Z,16.97
2019-02-20T20:43:28.563Z,17.00
2019-02-20T20:45:55.514Z,17.01
2019-02-20T20:48:22.548Z,17.03
2019-02-20T20:50:49.506Z,17.08
2019-02-20T20:53:16.491Z,17.08
2019-02-20T20:55:45.789Z,17.12
2019-02-20T20:58:12.697Z,17.14
2019-02-20T21:00:39.679Z,17.19
2019-02-20T21:03:07.015Z,17.21
2019-02-20T21:05:34.222Z,17.23
2019-02-20T21:08:01.204Z,17.25
2019-02-20T21:10:28.726Z,17.27
2019-02-20T21:12:58.043Z,17.28
2019-02-20T21:15:25.342Z,17.27
2019-02-20T21:17:52.787Z,17.22
2019-02-20T21:20:20.158Z,17.16
2019-02-20T21:22:47.335Z,17.16
2019-02-20T21:25:14.567Z,17.18
2019-02-20T21:27:41.813Z,17.19
2019-02-20T21:30:09.177Z,17.25
2019-02-20T21:32:36.200Z,17.23
2019-02-20T21:35:03.554Z,17.22
2019-02-20T21:37:30.527Z,17.23
2019-02-20T21:39:58.172Z,17.26
2019-02-20T21:42:25.158Z,17.27
2019-02-20T21:44:52.092Z,17.29
2019-02-20T21:47:19.322Z,17.32
2019-02-20T21:49:46.297Z,17.25
2019-02-20T21:52:13.653Z,17.23
2019-02-20T21:54:40.933Z,17.23
2019-02-20T21:57:08.318Z,17.24
2019-02-20T21:59:39.230Z,17.21
2019-02-20T22:02:03.893Z,17.18
2019-02-20T22:04:31.265Z,17.14
2019-02-20T22:07:00.269Z,17.12
2019-02-20T22:09:27.537Z,17.13
2019-02-20T22:11:54.449Z,17.10
2019-02-20T22:14:22.382Z,17.07
2019-02-20T22:16:49.297Z,17.01
2019-02-20T22:19:16.204Z,17.02
2019-02-20T22:21:43.526Z,17.05
2019-02-20T22:24:10.482Z,17.06
2019-02-20T22:26:37.542Z,17.04
2019-02-20T22:29:04.742Z,17.04
2019-02-20T22:31:32.125Z,17.02
2019-02-20T22:33:59.060Z,16.98
2019-02-20T22:36:28.899Z,16.95
2019-02-20T22:38:55.854Z,16.97
2019-02-20T22:41:24.206Z,17.00
2019-02-20T22:43:52.311Z,17.02
2019-02-20T22:46:19.573Z,17.03
2019-02-20T22:48:46.498Z,17.01
2019-02-20T22:51:13.390Z,17.02
2019-02-20T22:53:40.498Z,17.03
2019-02-20T22:56:07.432Z,17.03
2019-02-20T22:58:34.417Z,17.03
2019-02-20T23:01:06.302Z,17.04
2019-02-20T23:03:33.814Z,16.99
2019-02-20T23:06:00.808Z,17.01
2019-02-20T23:08:27.700Z,17.03
2019-02-20T23:10:55.177Z,17.00
2019-02-20T23:13:22.093Z,17.00
2019-02-20T23:15:49.115Z,17.00
2019-02-20T23:18:16.051Z,16.98
2019-02-20T23:20:42.931Z,16.98
2019-02-20T23:23:09.923Z,16.97
2019-02-20T23:25:37.173Z,16.98
2019-02-20T23:28:04.251Z,16.99
2019-02-20T23:30:31.149Z,16.99
2019-02-20T23:33:00.687Z,16.96
2019-02-20T23:35:27.004Z,16.93
2019-02-20T23:37:53.917Z,16.92
2019-02-20T23:40:21.154Z,16.92
2019-02-20T23:42:49.242Z,16.88
2019-02-20T23:45:16.309Z,16.87
2019-02-20T23:47:43.293Z,16.85
2019-02-20T23:50:10.287Z,16.85
2019-02-20T23:52:37.250Z,16.87
2019-02-20T23:55:04.250Z,16.85
2019-02-20T23:57:31.603Z,16.84
2019-02-20T23:59:58.975Z,16.81
